Time;durP1;ratioP1;P1;durP2;ratioP2;P2;SDS_P1;SDS_P2;PMS_P1;PMS_P2;Temp;Humidity;BMP_temperature;BMP_pressure;BME280_temperature;BME280_humidity;BME280_pressure;Samples;Min_cycle;Max_cycle;Signal;HPM_P1;HPM_P2
2021/12/14 00:01:45;;;;;;;119.88;41.22;;;5.50;99.90;;;;;;5035661;28;20033;-70
2021/12/14 00:04:19;;;;;;;92.47;36.63;;;5.50;99.90;;;;;;5038740;28;20096;-70
2021/12/14 00:06:47;;;;;;;120.45;40.88;;;5.50;99.90;;;;;;5033291;28;20580;-71
2021/12/14 00:09:23;;;;;;;113.50;40.22;;;5.50;99.90;;;;;;5035262;28;20095;-71
2021/12/14 00:12:09;;;;;;;102.47;38.42;;;5.50;99.90;;;;;;5034880;28;20694;-71
2021/12/14 00:17:19;;;;;;;128.30;42.63;;;5.40;99.90;;;;;;5024915;28;20033;-70
2021/12/14 00:19:44;;;;;;;130.88;43.33;;;5.50;99.90;;;;;;5040500;28;20036;-71
2021/12/14 00:22:34;;;;;;;126.60;43.63;;;5.40;99.90;;;;;;5037166;28;20028;-71
2021/12/14 00:25:00;;;;;;;103.10;37.78;;;5.40;99.90;;;;;;5027278;28;20427;-70
2021/12/14 00:27:27;;;;;;;113.88;39.67;;;5.40;99.90;;;;;;5036152;28;20025;-71
2021/12/14 00:29:57;;;;;;;146.70;45.22;;;5.50;99.90;;;;;;5037673;28;20029;-71
2021/12/14 00:32:26;;;;;;;156.88;46.63;;;5.50;99.90;;;;;;5039772;28;20025;-72
2021/12/14 00:34:54;;;;;;;147.43;43.90;;;5.40;99.90;;;;;;5032302;28;20452;-69
2021/12/14 00:37:23;;;;;;;114.78;38.72;;;5.40;99.90;;;;;;5038409;28;20040;-70
2021/12/14 00:39:50;;;;;;;149.63;44.28;;;5.40;99.90;;;;;;5029315;28;20026;-71
2021/12/14 00:42:17;;;;;;;161.65;45.50;;;5.40;99.90;;;;;;5030829;28;20516;-70
2021/12/14 00:44:43;;;;;;;147.57;43.60;;;5.40;99.90;;;;;;5037084;28;20100;-71
2021/12/14 00:47:09;;;;;;;229.77;55.20;;;5.40;99.90;;;;;;5036617;28;20032;-70
2021/12/14 00:49:35;;;;;;;148.07;44.55;;;5.50;99.90;;;;;;5036537;28;20026;-70
2021/12/14 00:52:01;;;;;;;150.23;45.15;;;5.40;99.90;;;;;;5035456;28;20388;-70
2021/12/14 00:54:27;;;;;;;139.82;42.85;;;5.40;99.90;;;;;;5035735;28;20116;-71
2021/12/14 00:56:53;;;;;;;217.27;52.92;;;5.60;99.90;;;;;;5044417;28;20441;-71
2021/12/14 00:59:20;;;;;;;191.60;49.45;;;5.50;99.90;;;;;;5037793;28;20108;-71
2021/12/14 01:01:56;;;;;;;138.98;43.80;;;5.60;99.90;;;;;;5044106;28;20029;-71
2021/12/14 01:04:29;;;;;;;195.38;48.05;;;5.40;99.90;;;;;;5032970;28;20025;-71
2021/12/14 01:06:57;;;;;;;163.10;46.22;;;5.50;99.90;;;;;;5027089;28;20033;-71
2021/12/14 01:09:27;;;;;;;263.80;57.55;;;5.40;99.90;;;;;;5029553;28;20026;-71
2021/12/14 01:11:57;;;;;;;156.82;42.15;;;5.40;99.90;;;;;;5046965;28;20039;-72
2021/12/14 01:14:45;;;;;;;265.02;57.85;;;5.40;99.90;;;;;;5030862;28;20060;-72
2021/12/14 01:17:26;;;;;;;182.38;47.10;;;5.50;99.90;;;;;;5031642;28;20519;-71
2021/12/14 01:19:57;;;;;;;248.25;53.47;;;5.40;99.90;;;;;;5034838;28;20134;-73
2021/12/14 01:22:43;;;;;;;150.43;42.15;;;5.50;99.90;;;;;;5033189;28;20049;-71
2021/12/14 01:25:19;;;;;;;197.20;49.35;;;5.40;99.90;;;;;;5034510;28;20024;-72
2021/12/14 01:27:52;;;;;;;114.85;40.00;;;5.50;99.90;;;;;;5034607;28;20025;-72
2021/12/14 01:30:27;;;;;;;111.75;38.00;;;5.50;99.90;;;;;;5030684;28;20030;-72
2021/12/14 01:32:56;;;;;;;81.85;32.15;;;5.50;99.90;;;;;;5014773;28;20029;-72
2021/12/14 01:35:27;;;;;;;119.57;39.25;;;5.50;99.90;;;;;;5018912;28;20029;-72
2021/12/14 01:38:04;;;;;;;105.65;36.78;;;5.40;99.90;;;;;;5022556;28;20030;-72
2021/12/14 01:40:53;;;;;;;96.68;35.45;;;5.40;99.90;;;;;;5021200;28;20032;-72
2021/12/14 01:43:24;;;;;;;92.93;35.35;;;5.40;99.90;;;;;;5022830;28;20066;-70
2021/12/14 01:45:50;;;;;;;77.18;32.83;;;5.40;99.90;;;;;;5014346;28;20018;-72
2021/12/14 01:48:15;;;;;;;101.88;36.97;;;5.40;99.90;;;;;;5014301;28;20041;-70
2021/12/14 01:50:51;;;;;;;77.60;33.38;;;5.40;99.90;;;;;;5012989;28;20034;-72
2021/12/14 01:53:20;;;;;;;82.75;33.97;;;5.40;99.90;;;;;;5019619;28;20025;-71
2021/12/14 01:55:52;;;;;;;89.53;34.58;;;5.40;99.90;;;;;;5021637;28;20030;-71
2021/12/14 01:58:22;;;;;;;87.70;36.20;;;5.40;99.90;;;;;;5020784;28;20496;-71
2021/12/14 02:00:54;;;;;;;51.92;26.90;;;5.40;99.90;;;;;;5033727;28;20578;-71
2021/12/14 02:03:27;;;;;;;71.95;31.17;;;5.40;99.90;;;;;;5025950;28;20021;-70
2021/12/14 02:05:52;;;;;;;80.82;33.80;;;5.40;99.90;;;;;;5016254;28;20429;-71
2021/12/14 02:08:28;;;;;;;76.00;31.88;;;5.40;99.90;;;;;;5036858;28;20033;-72
2021/12/14 02:10:54;;;;;;;;;;;5.50;99.90;;;;;;5032950;28;20026;-72
2021/12/14 02:13:30;;;;;;;121.82;40.40;;;5.50;99.90;;;;;;5033597;28;19905;-72
2021/12/14 02:15:57;;;;;;;97.00;36.92;;;5.40;99.90;;;;;;5022115;28;20419;-72
2021/12/14 02:18:24;;;;;;;83.68;33.58;;;5.40;99.90;;;;;;5025841;28;20084;-72
2021/12/14 02:21:06;;;;;;;101.88;37.03;;;5.40;99.90;;;;;;5024349;28;20025;-72
2021/12/14 02:23:34;;;;;;;75.78;30.77;;;5.40;99.90;;;;;;5014178;28;20018;-72
2021/12/14 02:26:03;;;;;;;110.50;38.10;;;5.40;99.90;;;;;;5013470;28;20084;-71
2021/12/14 02:28:28;;;;;;;85.93;34.47;;;5.40;99.90;;;;;;5012927;28;20038;-70
2021/12/14 02:30:58;;;;;;;64.90;32.35;;;5.40;99.90;;;;;;5013621;28;20081;-70
2021/12/14 02:33:31;;;;;;;66.63;31.42;;;5.40;99.90;;;;;;5020555;28;20029;-71
2021/12/14 02:35:59;;;;;;;63.83;28.85;;;5.40;99.90;;;;;;5031713;28;20068;-71
2021/12/14 02:38:26;;;;;;;82.95;33.97;;;5.40;99.90;;;;;;5033212;28;20026;-71
2021/12/14 02:41:05;;;;;;;63.55;29.30;;;5.30;99.90;;;;;;5031247;28;20080;-72
2021/12/14 02:43:41;;;;;;;79.38;32.38;;;5.30;99.90;;;;;;5023670;28;20053;-70
2021/12/14 02:46:15;;;;;;;69.55;29.33;;;5.30;99.90;;;;;;5014652;28;20030;-70
2021/12/14 02:48:45;;;;;;;70.47;31.02;;;5.30;99.90;;;;;;5011965;28;20508;-70
2021/12/14 02:51:38;;;;;;;73.53;31.58;;;5.30;99.90;;;;;;5024493;28;20026;-71
2021/12/14 02:54:11;;;;;;;83.90;33.55;;;5.30;99.90;;;;;;5028072;28;20515;-70
2021/12/14 02:56:39;;;;;;;74.50;31.23;;;5.30;99.90;;;;;;5032921;28;20034;-70
2021/12/14 02:59:22;;;;;;;86.68;35.05;;;5.30;99.90;;;;;;5018125;28;20179;-70
2021/12/14 03:01:51;;;;;;;122.43;40.03;;;5.30;99.90;;;;;;5031716;28;20061;-71
2021/12/14 03:04:17;;;;;;;78.50;32.35;;;5.30;99.90;;;;;;5011623;28;20085;-71
2021/12/14 03:06:48;;;;;;;163.80;47.58;;;5.30;99.90;;;;;;5012941;28;20560;-71
2021/12/14 03:09:35;;;;;;;116.05;37.65;;;5.40;99.90;;;;;;5022991;28;20030;-71
2021/12/14 03:12:08;;;;;;;142.30;43.00;;;5.30;99.90;;;;;;5032599;28;20472;-71
2021/12/14 03:14:34;;;;;;;131.45;40.35;;;5.30;99.90;;;;;;5031215;28;20124;-72
2021/12/14 03:17:00;;;;;;;116.30;38.08;;;5.20;99.90;;;;;;5026774;28;20123;-71
2021/12/14 03:19:26;;;;;;;172.10;44.83;;;5.30;99.90;;;;;;5025312;28;20033;-71
2021/12/14 03:21:52;;;;;;;122.18;38.28;;;5.20;99.90;;;;;;5025425;28;20022;-71
2021/12/14 03:24:19;;;;;;;223.75;49.42;;;5.20;99.90;;;;;;5025410;28;20029;-73
2021/12/14 03:26:53;;;;;;;320.02;57.08;;;5.30;99.90;;;;;;5033546;28;20052;-72
2021/12/14 03:29:29;;;;;;;178.95;44.83;;;5.30;99.90;;;;;;5032743;28;20021;-72
2021/12/14 03:31:57;;;;;;;95.45;32.35;;;5.30;99.90;;;;;;5030951;28;20376;-70
2021/12/14 03:34:30;;;;;;;181.13;45.55;;;5.20;99.90;;;;;;5031381;28;20037;-70
2021/12/14 03:37:19;;;;;;;318.63;55.47;;;5.30;99.90;;;;;;5031486;28;20104;-70
2021/12/14 03:39:48;;;;;;;208.48;46.70;;;5.30;99.90;;;;;;5031119;28;20033;-71
2021/12/14 03:42:26;;;;;;;131.27;34.75;;;5.30;99.90;;;;;;5031995;28;20033;-71
2021/12/14 03:44:55;;;;;;;223.40;44.05;;;5.10;99.90;;;;;;5031793;28;20021;-70
2021/12/14 03:47:26;;;;;;;200.70;40.10;;;5.30;99.90;;;;;;5031890;28;20025;-70
2021/12/14 03:50:00;;;;;;;270.35;49.70;;;5.30;99.90;;;;;;5031995;28;20472;-70
2021/12/14 03:52:33;;;;;;;249.75;48.22;;;5.30;99.90;;;;;;5030611;28;20036;-71
2021/12/14 03:55:05;;;;;;;232.68;52.40;;;5.30;99.90;;;;;;5031813;28;20030;-71
2021/12/14 03:57:31;;;;;;;243.25;47.53;;;;;;;;;;5030443;28;20026;-71
2021/12/14 03:59:57;;;;;;;237.88;98.50;;;;;;;;;;5031753;28;20091;-70
2021/12/14 04:02:23;;;;;;;344.08;54.45;;;;;;;;;;5031633;28;20068;-71
2021/12/14 04:05:04;;;;;;;190.10;42.75;;;5.20;99.90;;;;;;5031529;28;20380;-70
2021/12/14 04:07:32;;;;;;;312.33;50.38;;;5.30;99.90;;;;;;5031725;28;20364;-70
2021/12/14 04:09:59;;;;;;;331.08;52.67;;;5.30;99.90;;;;;;5031438;28;20539;-71
2021/12/14 04:12:25;;;;;;;200.18;44.63;;;;;;;;;;5031719;28;20033;-71
2021/12/14 04:14:55;;;;;;;107.63;34.08;;;5.20;99.90;;;;;;5031372;28;20064;-70
2021/12/14 04:17:23;;;;;;;75.65;29.70;;;5.20;99.90;;;;;;5031751;28;20079;-71
2021/12/14 04:19:49;;;;;;;110.93;35.03;;;5.10;99.90;;;;;;5031542;28;20061;-71
2021/12/14 04:22:24;;;;;;;176.75;47.13;;;5.00;99.90;;;;;;5031480;28;20463;-71
2021/12/14 04:24:55;;;;;;;109.55;39.95;;;5.10;99.90;;;;;;5031358;28;20045;-71
2021/12/14 04:27:28;;;;;;;93.40;36.78;;;5.00;99.90;;;;;;5031547;28;20476;-71
2021/12/14 04:29:55;;;;;;;77.63;33.63;;;5.00;99.90;;;;;;5013363;28;20391;-70
2021/12/14 04:32:21;;;;;;;56.15;27.60;;;5.00;99.90;;;;;;5011663;28;20443;-72
2021/12/14 04:34:49;;;;;;;53.70;24.08;;;4.90;99.90;;;;;;5030179;28;20061;-72
2021/12/14 04:37:19;;;;;;;62.67;27.48;;;4.90;99.90;;;;;;5017845;28;20546;-71
2021/12/14 04:39:52;;;;;;;71.22;28.38;;;4.80;99.90;;;;;;5031351;28;20056;-70
2021/12/14 04:53:24;;;;;;;54.10;23.83;;;4.70;99.90;;;;;;5024262;28;20498;-71
2021/12/14 04:55:56;;;;;;;56.35;25.08;;;4.60;99.90;;;;;;5028267;28;20026;-71
2021/12/14 04:58:32;;;;;;;42.45;21.10;;;4.70;99.90;;;;;;5027489;28;20057;-72
2021/12/14 05:01:00;;;;;;;46.83;21.90;;;4.70;99.90;;;;;;5035058;28;20099;-71
2021/12/14 05:03:49;;;;;;;45.75;22.23;;;4.60;99.90;;;;;;5021185;28;20113;-71
2021/12/14 05:06:22;;;;;;;45.92;22.45;;;4.60;99.90;;;;;;5015147;28;20501;-72
2021/12/14 05:11:22;;;;;;;61.35;26.20;;;4.70;99.90;;;;;;5035053;28;20029;-71
2021/12/14 05:13:54;;;;;;;58.85;25.30;;;4.70;99.90;;;;;;5027754;28;20143;-72
2021/12/14 05:16:26;;;;;;;76.80;28.15;;;4.70;99.90;;;;;;5028439;28;20083;-72
2021/12/14 05:18:56;;;;;;;59.08;24.70;;;4.70;99.90;;;;;;5021201;28;20026;-73
2021/12/14 05:21:48;;;;;;;61.97;24.77;;;4.60;99.90;;;;;;5020096;28;20056;-71
2021/12/14 05:24:17;;;;;;;45.83;22.08;;;;;;;;;;5026660;28;20535;-72
2021/12/14 05:26:44;;;;;;;43.35;21.80;;;4.50;99.90;;;;;;5016075;28;20036;-73
2021/12/14 05:29:11;;;;;;;45.78;22.23;;;4.60;99.90;;;;;;5014715;28;20026;-71
2021/12/14 05:31:47;;;;;;;64.93;27.67;;;4.50;99.90;;;;;;5014669;28;20025;-71
2021/12/14 05:34:13;;;;;;;82.18;28.40;;;4.50;99.90;;;;;;5014429;28;20097;-70
2021/12/14 05:36:41;;;;;;;64.80;25.15;;;4.50;99.90;;;;;;5014801;28;20388;-70
2021/12/14 05:39:38;;;;;;;77.22;28.17;;;4.50;99.90;;;;;;5014625;28;20097;-70
2021/12/14 05:44:44;;;;;;;49.40;21.67;;;4.50;99.90;;;;;;5014499;28;20360;-69
2021/12/14 05:47:16;;;;;;;59.00;24.13;;;4.40;99.90;;;;;;5014444;28;20080;-71
2021/12/14 05:49:44;;;;;;;56.92;23.63;;;4.50;99.90;;;;;;5021905;28;20033;-70
2021/12/14 05:52:13;;;;;;;44.15;19.55;;;4.40;99.90;;;;;;5019833;28;20026;-70
2021/12/14 05:54:39;;;;;;;31.83;17.33;;;4.40;99.90;;;;;;5012859;28;20038;-70
2021/12/14 05:57:11;;;;;;;53.70;20.52;;;4.40;99.90;;;;;;5013147;28;20481;-71
2021/12/14 05:59:37;;;;;;;56.33;20.08;;;4.40;99.90;;;;;;5014254;28;20095;-71
2021/12/14 06:02:07;;;;;;;52.13;21.00;;;4.50;99.90;;;;;;5013139;28;20105;-71
2021/12/14 06:04:37;;;;;;;43.25;19.30;;;4.30;99.90;;;;;;5012422;28;20118;-71
2021/12/14 06:07:03;;;;;;;38.90;17.75;;;4.40;99.90;;;;;;5017129;28;20025;-72
2021/12/14 06:09:33;;;;;;;50.95;18.58;;;4.40;99.90;;;;;;5033808;28;20030;-71
2021/12/14 06:12:03;;;;;;;47.80;19.00;;;4.40;99.90;;;;;;5029812;28;20032;-72
2021/12/14 06:14:30;;;;;;;70.93;23.77;;;4.30;99.90;;;;;;5025053;28;20492;-70
2021/12/14 06:17:03;;;;;;;49.50;19.63;;;4.40;99.90;;;;;;5033568;28;20053;-71
2021/12/14 06:19:41;;;;;;;61.78;21.52;;;4.30;99.90;;;;;;5032327;28;20060;-71
2021/12/14 06:22:13;;;;;;;40.67;17.50;;;4.40;99.90;;;;;;5026504;28;20116;-71
2021/12/14 06:24:44;;;;;;;52.80;19.20;;;4.40;99.90;;;;;;5012415;28;20511;-70
2021/12/14 06:27:13;;;;;;;53.30;21.20;;;4.40;99.90;;;;;;5021398;28;20025;-71
2021/12/14 06:29:45;;;;;;;33.83;18.48;;;4.40;99.90;;;;;;5017876;28;20034;-71
2021/12/14 06:32:14;;;;;;;37.03;21.95;;;4.30;99.90;;;;;;5013598;28;20017;-71
2021/12/14 06:34:44;;;;;;;45.92;19.73;;;4.40;99.90;;;;;;5025478;28;20033;-70
2021/12/14 06:37:55;;;;;;;43.15;17.67;;;4.20;99.90;;;;;;5024697;28;20021;-70
2021/12/14 06:40:23;;;;;;;50.63;23.10;;;4.30;99.90;;;;;;5024283;28;20025;-70
2021/12/14 06:43:05;;;;;;;46.72;21.98;;;4.30;99.90;;;;;;5032590;28;20434;-70
2021/12/14 06:45:35;;;;;;;48.25;21.27;;;4.40;99.90;;;;;;5029086;28;20021;-70
2021/12/14 06:48:21;;;;;;;66.10;21.15;;;4.20;99.90;;;;;;5025219;28;20387;-72
2021/12/14 06:50:52;;;;;;;32.00;13.70;;;4.20;99.90;;;;;;5033074;28;20495;-71
2021/12/14 06:53:20;;;;;;;37.03;15.48;;;4.20;99.90;;;;;;5023059;28;20030;-70
2021/12/14 06:55:49;;;;;;;45.20;17.20;;;4.20;99.90;;;;;;5030114;28;20061;-71
2021/12/14 06:58:19;;;;;;;44.15;17.00;;;4.20;99.90;;;;;;5033371;28;20123;-70
2021/12/14 07:00:52;;;;;;;40.03;16.85;;;4.30;99.90;;;;;;5032674;28;20033;-72
2021/12/14 07:03:18;;;;;;;47.30;18.90;;;4.30;99.90;;;;;;5032841;28;20025;-72
2021/12/14 07:05:47;;;;;;;54.25;20.95;;;4.50;99.90;;;;;;5032704;28;20033;-71
2021/12/14 07:08:22;;;;;;;59.40;22.60;;;4.40;99.90;;;;;;5022515;28;20025;-70
2021/12/14 07:10:47;;;;;;;41.22;21.65;;;4.40;99.90;;;;;;5020627;28;20100;-71
2021/12/14 07:13:17;;;;;;;71.78;26.17;;;4.40;99.90;;;;;;5031153;28;20121;-72
2021/12/14 07:15:43;;;;;;;78.53;25.67;;;4.40;99.90;;;;;;5024644;28;20021;-71
2021/12/14 07:18:09;;;;;;;43.63;20.10;;;4.30;99.90;;;;;;5030898;28;20108;-71
2021/12/14 07:20:45;;;;;;;48.72;20.60;;;4.40;99.90;;;;;;5019793;28;20436;-71
2021/12/14 07:23:18;;;;;;;;;;;4.40;99.90;;;;;;5018436;28;20487;-70
2021/12/14 07:25:51;;;;;;;37.67;17.95;;;4.30;99.90;;;;;;5021877;28;20268;-71
2021/12/14 07:28:18;;;;;;;47.70;24.02;;;4.50;99.90;;;;;;5030575;28;20032;-70
2021/12/14 07:30:58;;;;;;;44.08;19.60;;;4.40;99.90;;;;;;5021113;28;20029;-70
2021/12/14 07:33:29;;;;;;;42.45;21.88;;;4.30;99.90;;;;;;5025538;28;20107;-70
2021/12/14 07:36:05;;;;;;;40.63;22.48;;;4.40;99.90;;;;;;5023895;28;20025;-70
2021/12/14 07:38:47;;;;;;;50.50;21.00;;;4.30;99.90;;;;;;5032231;28;20087;-71
2021/12/14 07:41:30;;;;;;;33.97;17.73;;;4.30;99.90;;;;;;5044006;28;20044;-71
2021/12/14 07:44:28;;;;;;;38.42;22.45;;;4.20;99.90;;;;;;5048982;28;20111;-71
2021/12/14 07:47:05;;;;;;;54.03;23.77;;;4.30;99.90;;;;;;5030501;28;20022;-71
2021/12/14 07:49:34;;;;;;;51.28;23.70;;;4.20;99.90;;;;;;5027064;28;20029;-71
2021/12/14 07:52:09;;;;;;;45.97;20.27;;;4.20;99.90;;;;;;5023695;28;20039;-69
2021/12/14 07:54:45;;;;;;;44.75;24.15;;;4.30;99.90;;;;;;5032814;28;20087;-71
2021/12/14 07:57:23;;;;;;;54.90;30.77;;;4.30;99.90;;;;;;5031836;28;20087;-71
2021/12/14 07:59:53;;;;;;;44.30;27.60;;;4.30;99.90;;;;;;5030660;28;20064;-70
2021/12/14 08:02:32;;;;;;;35.30;22.83;;;4.20;99.90;;;;;;5023265;28;20029;-71
2021/12/14 08:05:04;;;;;;;49.85;24.08;;;4.30;99.90;;;;;;5034668;28;20018;-71
2021/12/14 08:07:38;;;;;;;35.13;21.83;;;4.30;99.90;;;;;;5032132;28;20029;-73
2021/12/14 08:10:17;;;;;;;41.85;19.50;;;4.20;99.90;;;;;;5031702;28;20045;-73
2021/12/14 08:12:50;;;;;;;39.05;21.38;;;4.20;99.90;;;;;;5031628;28;20029;-73
2021/12/14 08:15:28;;;;;;;35.55;18.90;;;4.20;99.90;;;;;;5031505;28;20033;-72
2021/12/14 08:18:10;;;;;;;33.33;15.82;;;4.30;99.90;;;;;;5031519;28;20022;-72
2021/12/14 08:20:51;;;;;;;29.02;15.13;;;4.20;99.90;;;;;;5030329;28;20395;-72
2021/12/14 08:23:30;;;;;;;43.35;18.55;;;4.20;99.90;;;;;;5028258;28;20083;-72
2021/12/14 08:26:00;;;;;;;29.25;17.58;;;4.10;99.90;;;;;;5029024;28;20029;-71
2021/12/14 08:28:26;;;;;;;43.00;25.20;;;4.30;99.90;;;;;;5025384;28;20037;-71
2021/12/14 08:30:57;;;;;;;40.22;24.20;;;4.50;99.90;;;;;;5011301;28;20425;-70
2021/12/14 08:33:26;;;;;;;38.83;22.00;;;4.50;99.90;;;;;;5024838;28;20120;-71
2021/12/14 08:35:55;;;;;;;51.47;21.65;;;4.40;99.90;;;;;;5011517;28;20036;-71
2021/12/14 08:38:21;;;;;;;56.28;26.00;;;4.40;99.90;;;;;;5011686;28;20101;-71
2021/12/14 08:40:53;;;;;;;35.53;20.40;;;4.20;99.90;;;;;;5011561;28;20105;-71
2021/12/14 08:43:30;;;;;;;31.23;18.85;;;4.40;99.90;;;;;;5011569;28;20670;-71
2021/12/14 08:46:10;;;;;;;43.10;22.38;;;4.40;99.90;;;;;;5014605;28;20114;-72
2021/12/14 08:48:49;;;;;;;47.85;29.13;;;4.50;99.90;;;;;;5019544;28;20025;-71
2021/12/14 08:51:20;;;;;;;49.72;27.85;;;4.50;99.90;;;;;;5018179;28;20048;-71
2021/12/14 08:53:49;;;;;;;31.75;19.50;;;4.50;99.90;;;;;;5031367;28;20034;-71
2021/12/14 08:56:17;;;;;;;28.20;17.13;;;4.40;99.90;;;;;;5030998;28;20030;-70
2021/12/14 08:58:44;;;;;;;22.88;16.88;;;4.40;99.90;;;;;;5016409;28;20037;-73
2021/12/14 09:01:15;;;;;;;27.95;18.05;;;4.50;99.90;;;;;;5018136;28;20041;-72
2021/12/14 09:03:48;;;;;;;31.77;18.08;;;4.50;99.90;;;;;;5017802;28;20030;-71
2021/12/14 09:06:17;;;;;;;38.22;19.05;;;4.40;99.90;;;;;;5036731;28;20025;-72
2021/12/14 09:08:47;;;;;;;50.42;30.42;;;4.50;99.90;;;;;;5017917;28;20108;-71
2021/12/14 09:11:16;;;;;;;37.53;21.73;;;4.50;99.90;;;;;;5031013;28;20049;-71
2021/12/14 09:13:43;;;;;;;43.17;23.40;;;4.60;99.90;;;;;;5031084;28;20064;-71
2021/12/14 09:16:08;;;;;;;34.58;20.38;;;;;;;;;;5031100;28;20057;-72
2021/12/14 09:18:41;;;;;;;29.67;19.85;;;4.60;99.90;;;;;;5031452;28;20503;-72
2021/12/14 09:21:14;;;;;;;31.38;18.50;;;4.60;99.90;;;;;;5029661;28;20025;-72
2021/12/14 09:23:43;;;;;;;31.35;18.00;;;4.60;99.90;;;;;;5029592;28;20140;-72
2021/12/14 09:26:15;;;;;;;35.22;20.42;;;4.50;99.90;;;;;;5031076;28;20025;-72
2021/12/14 09:28:41;;;;;;;39.30;21.48;;;4.60;99.90;;;;;;5030701;28;20116;-72
2021/12/14 09:31:13;;;;;;;47.35;28.00;;;4.70;99.90;;;;;;5029495;28;20121;-71
2021/12/14 09:33:40;;;;;;;42.08;23.45;;;4.80;99.90;;;;;;5029505;28;20030;-72
2021/12/14 09:36:12;;;;;;;49.63;27.67;;;4.90;99.90;;;;;;5030609;28;20021;-72
2021/12/14 09:38:50;;;;;;;43.83;25.63;;;5.00;99.90;;;;;;5032135;28;20049;-72
2021/12/14 09:41:21;;;;;;;61.92;25.98;;;5.00;99.90;;;;;;5032765;28;20025;-72
2021/12/14 09:43:48;;;;;;;43.67;23.98;;;4.90;99.90;;;;;;5032953;28;20053;-72
2021/12/14 09:46:15;;;;;;;42.22;20.58;;;4.90;99.90;;;;;;5033914;28;20026;-72
2021/12/14 09:48:46;;;;;;;42.17;22.80;;;5.10;99.90;;;;;;5034530;28;20456;-73
2021/12/14 09:51:19;;;;;;;48.03;26.48;;;4.90;99.90;;;;;;5034004;28;20034;-71
2021/12/14 09:53:49;;;;;;;34.80;22.25;;;5.00;99.90;;;;;;5034013;28;20029;-71
2021/12/14 09:56:17;;;;;;;50.33;25.98;;;5.20;99.90;;;;;;5032619;28;20395;-72
2021/12/14 09:58:46;;;;;;;54.03;28.23;;;5.10;99.90;;;;;;5033964;28;20109;-71
2021/12/14 10:01:20;;;;;;;37.75;21.80;;;5.00;99.90;;;;;;5033903;28;20037;-72
2021/12/14 10:03:49;;;;;;;43.88;25.00;;;5.10;99.90;;;;;;5033687;28;20497;-72
2021/12/14 10:06:21;;;;;;;40.97;24.80;;;5.00;99.90;;;;;;5032216;28;20079;-72
2021/12/14 10:08:57;;;;;;;35.28;22.10;;;5.10;99.90;;;;;;5032379;28;20163;-72
2021/12/14 10:11:41;;;;;;;44.65;22.73;;;5.20;99.90;;;;;;5033551;28;20392;-71
2021/12/14 10:14:09;;;;;;;35.85;22.20;;;5.20;99.90;;;;;;5020732;28;20030;-72
2021/12/14 10:16:36;;;;;;;40.75;22.88;;;5.20;99.90;;;;;;5025857;28;20148;-71
2021/12/14 10:19:07;;;;;;;37.92;23.35;;;5.30;99.90;;;;;;5033802;28;20017;-72
2021/12/14 10:21:39;;;;;;;41.65;23.40;;;5.30;99.90;;;;;;5018943;28;20029;-72
2021/12/14 10:24:07;;;;;;;39.33;22.88;;;5.30;99.90;;;;;;5032225;28;20484;-71
2021/12/14 10:26:35;;;;;;;35.70;22.45;;;5.30;99.90;;;;;;5014460;28;20538;-71
2021/12/14 10:29:02;;;;;;;35.80;20.50;;;5.30;99.90;;;;;;5024150;28;20025;-72
2021/12/14 10:31:32;;;;;;;34.95;23.35;;;5.30;99.90;;;;;;5027279;28;20096;-71
2021/12/14 10:34:02;;;;;;;37.20;22.10;;;5.40;99.90;;;;;;5025727;28;20025;-73
2021/12/14 10:36:35;;;;;;;38.40;22.65;;;5.40;99.90;;;;;;5033349;28;20025;-72
2021/12/14 10:44:26;;;;;;;39.95;24.77;;;5.30;99.90;;;;;;5030313;28;20068;-71
2021/12/14 10:46:55;;;;;;;30.85;21.73;;;5.30;99.90;;;;;;5032989;28;20022;-72
2021/12/14 10:49:22;;;;;;;33.35;21.55;;;5.20;99.90;;;;;;5032581;28;20040;-71
2021/12/14 10:51:52;;;;;;;45.00;29.63;;;5.30;99.90;;;;;;5033090;28;20021;-71
2021/12/14 10:54:19;;;;;;;40.47;25.55;;;5.30;99.90;;;;;;5032818;28;20028;-71
2021/12/14 10:56:56;;;;;;;35.00;23.83;;;5.30;99.90;;;;;;5021069;28;20112;-71
2021/12/14 10:59:37;;;;;;;42.85;26.25;;;5.40;99.90;;;;;;5026578;28;20033;-71
2021/12/14 11:02:04;;;;;;;40.28;25.17;;;5.40;99.90;;;;;;5032717;28;20029;-71
2021/12/14 11:04:38;;;;;;;49.53;31.90;;;5.40;99.90;;;;;;5032564;28;20021;-71
2021/12/14 11:07:11;;;;;;;45.85;28.63;;;5.40;99.90;;;;;;5032834;28;20205;-71
2021/12/14 11:09:41;;;;;;;51.53;30.10;;;5.40;99.90;;;;;;5031395;28;20542;-71
2021/12/14 11:12:16;;;;;;;42.60;26.83;;;5.50;99.90;;;;;;5031466;28;20037;-71
2021/12/14 11:14:42;;;;;;;43.27;26.33;;;5.40;99.90;;;;;;5032577;28;20372;-71
2021/12/14 11:20:00;;;;;;;42.67;26.00;;;5.50;99.90;;;;;;5016749;28;20041;-70
2021/12/14 11:22:33;;;;;;;38.00;24.73;;;5.40;99.90;;;;;;5022931;28;20048;-71
2021/12/14 11:25:11;;;;;;;45.65;26.13;;;5.40;99.90;;;;;;5027912;28;20604;-71
2021/12/14 11:27:43;;;;;;;44.55;25.95;;;5.40;99.90;;;;;;5025465;28;20690;-71
2021/12/14 11:30:21;;;;;;;40.38;23.92;;;5.40;99.90;;;;;;5032441;28;20030;-71
2021/12/14 11:33:17;;;;;;;39.22;23.40;;;5.40;99.90;;;;;;5019286;28;20029;-72
2021/12/14 11:35:55;;;;;;;49.80;27.20;;;5.40;99.90;;;;;;5019992;28;20500;-72
2021/12/14 11:38:49;;;;;;;53.13;27.40;;;5.40;99.90;;;;;;5019939;28;20033;-71
2021/12/14 11:41:20;;;;;;;45.25;26.83;;;5.40;99.90;;;;;;5025688;28;20034;-71
2021/12/14 11:43:52;;;;;;;50.63;27.63;;;5.50;99.90;;;;;;5024327;28;20032;-72
2021/12/14 11:46:18;;;;;;;45.20;27.02;;;5.50;99.90;;;;;;5034167;28;20021;-71
2021/12/14 11:48:44;;;;;;;50.60;28.60;;;5.50;99.90;;;;;;5032199;28;20036;-71
2021/12/14 11:51:10;;;;;;;81.10;34.55;;;5.50;99.90;;;;;;5026022;28;20489;-71
2021/12/14 11:53:37;;;;;;;48.67;27.60;;;5.50;99.90;;;;;;5024814;28;20021;-71
2021/12/14 11:56:15;;;;;;;70.35;36.75;;;5.50;99.90;;;;;;5034350;28;20024;-70
2021/12/14 11:58:44;;;;;;;54.55;31.23;;;5.50;99.90;;;;;;5043220;28;20093;-71
2021/12/14 12:01:12;;;;;;;90.35;38.67;;;5.40;99.90;;;;;;5042740;28;20455;-71
2021/12/14 12:03:59;;;;;;;61.03;32.53;;;5.50;99.90;;;;;;5035406;28;20128;-70
2021/12/14 12:09:35;;;;;;;90.68;35.55;;;5.50;99.90;;;;;;5038740;28;20017;-70
2021/12/14 12:12:04;;;;;;;76.72;34.35;;;5.40;99.90;;;;;;5037957;28;20022;-71
2021/12/14 12:14:43;;;;;;;64.75;32.28;;;5.40;99.90;;;;;;5043014;28;20028;-72
2021/12/14 12:17:30;;;;;;;51.78;29.83;;;5.40;99.90;;;;;;5037212;28;20134;-70
2021/12/14 12:20:03;;;;;;;68.15;32.05;;;5.40;99.90;;;;;;5041972;28;20373;-71
2021/12/14 12:22:40;;;;;;;64.03;32.63;;;5.40;99.90;;;;;;5043152;28;20021;-70
2021/12/14 12:25:09;;;;;;;62.20;30.48;;;5.40;99.90;;;;;;5041826;28;20068;-70
2021/12/14 12:27:42;;;;;;;72.35;35.33;;;5.40;99.90;;;;;;5042852;28;20609;-70
2021/12/14 12:30:35;;;;;;;49.55;28.58;;;5.40;99.90;;;;;;5033797;28;20160;-70
2021/12/14 12:33:19;;;;;;;55.58;30.13;;;5.40;99.90;;;;;;5042626;28;20383;-71
2021/12/14 12:35:53;;;;;;;85.97;39.15;;;5.50;99.90;;;;;;5034719;28;20104;-71
2021/12/14 12:38:34;;;;;;;63.72;32.53;;;5.50;99.90;;;;;;5037677;28;20041;-70
2021/12/14 12:41:17;;;;;;;49.75;29.80;;;5.50;99.90;;;;;;5035931;28;20112;-71
2021/12/14 12:43:50;;;;;;;60.38;33.13;;;5.50;99.90;;;;;;5045437;28;20386;-71
2021/12/14 12:46:26;;;;;;;70.47;35.42;;;5.40;99.90;;;;;;5038144;28;20028;-70
2021/12/14 12:48:54;;;;;;;76.22;36.67;;;5.50;99.90;;;;;;5042456;28;20491;-70
2021/12/14 12:51:43;;;;;;;67.95;35.65;;;5.50;99.90;;;;;;5044758;28;20017;-70
2021/12/14 12:54:32;;;;;;;86.40;47.92;;;5.50;99.90;;;;;;5036659;28;20444;-71
2021/12/14 12:57:22;;;;;;;87.47;37.65;;;5.50;99.90;;;;;;5045068;28;20100;-71
2021/12/14 12:59:55;;;;;;;68.38;34.35;;;5.50;99.90;;;;;;5045258;28;20537;-71
2021/12/14 13:02:29;;;;;;;56.40;33.13;;;5.50;99.90;;;;;;5030541;28;20022;-71
2021/12/14 13:05:17;;;;;;;70.43;35.33;;;5.50;99.90;;;;;;5043361;28;20044;-70
2021/12/14 13:08:05;;;;;;;65.72;36.08;;;5.50;99.90;;;;;;5037901;28;20059;-71
2021/12/14 13:10:36;;;;;;;69.20;37.88;;;5.50;99.90;;;;;;5032065;28;20034;-71
2021/12/14 13:13:16;;;;;;;72.03;38.03;;;5.50;99.90;;;;;;5034923;28;20018;-71
2021/12/14 13:16:07;;;;;;;67.85;34.03;;;5.50;99.90;;;;;;5038646;28;20116;-71
2021/12/14 13:18:54;;;;;;;94.75;43.67;;;5.50;99.90;;;;;;5035941;28;20499;-71
2021/12/14 13:21:25;;;;;;;64.40;33.45;;;5.60;99.90;;;;;;5035979;28;20030;-71
2021/12/14 13:24:03;;;;;;;63.13;33.45;;;5.50;99.90;;;;;;5036112;28;20044;-71
2021/12/14 13:26:38;;;;;;;71.25;37.42;;;5.50;99.90;;;;;;5040154;28;20032;-71
2021/12/14 13:29:13;;;;;;;64.70;31.98;;;5.50;99.90;;;;;;5023672;28;20051;-71
2021/12/14 13:32:02;;;;;;;62.85;33.13;;;5.50;99.90;;;;;;5035789;28;20026;-71
2021/12/14 13:34:46;;;;;;;85.05;38.38;;;5.50;99.90;;;;;;5041325;28;20033;-71